Time;durP1;ratioP1;P1;durP2;ratioP2;P2;SDS_P1;SDS_P2;PMS_P1;PMS_P2;Temp;Humidity;BMP_temperature;BMP_pressure;BME280_temperature;BME280_humidity;BME280_pressure;Samples;Min_cycle;Max_cycle;Signal;HPM_P1;HPM_P2
2023/03/08 00:00:56;;;;;;;5.50;2.33;;;4.60;97.20;;;;;;5091120;28;20118;-68
2023/03/08 00:03:22;;;;;;;5.38;1.83;;;4.50;97.20;;;;;;5086030;28;20027;-68
2023/03/08 00:05:48;;;;;;;4.03;2.03;;;4.50;97.20;;;;;;5089904;28;20039;-68
2023/03/08 00:08:14;;;;;;;5.40;2.47;;;4.40;97.10;;;;;;5091087;28;20607;-69
2023/03/08 00:10:40;;;;;;;4.22;1.80;;;4.40;97.20;;;;;;5087482;28;20055;-69
2023/03/08 00:13:06;;;;;;;5.35;2.30;;;4.40;97.20;;;;;;5087403;28;20028;-68
2023/03/08 00:15:31;;;;;;;5.53;2.63;;;4.30;97.20;;;;;;5091032;28;20036;-68
2023/03/08 00:17:57;;;;;;;4.55;2.25;;;4.20;97.20;;;;;;5091223;28;20020;-68
2023/03/08 00:20:22;;;;;;;4.07;2.00;;;4.20;97.20;;;;;;5090909;28;20055;-69
2023/03/08 00:22:48;;;;;;;7.03;2.30;;;4.20;97.30;;;;;;5090934;28;20012;-69
2023/03/08 00:25:15;;;;;;;3.17;2.05;;;4.10;97.30;;;;;;5090943;28;20523;-69
2023/03/08 00:27:41;;;;;;;4.47;2.40;;;4.10;97.30;;;;;;5091002;28;20452;-68
2023/03/08 00:30:07;;;;;;;3.67;2.40;;;4.10;97.30;;;;;;5084733;28;20103;-68
2023/03/08 00:32:33;;;;;;;5.20;2.40;;;4.10;97.30;;;;;;5091047;28;20024;-69
2023/03/08 00:34:59;;;;;;;7.80;2.30;;;4.10;97.30;;;;;;5091321;28;20020;-68
2023/03/08 00:37:24;;;;;;;7.00;3.05;;;4.10;97.30;;;;;;5091467;28;20523;-68
2023/03/08 00:39:51;;;;;;;5.05;2.28;;;4.10;97.40;;;;;;5091276;28;20459;-68
2023/03/08 00:42:18;;;;;;;6.45;3.00;;;4.00;97.40;;;;;;5093239;28;20036;-68
2023/03/08 00:44:43;;;;;;;5.60;2.50;;;4.00;97.40;;;;;;5094482;28;20035;-68
2023/03/08 00:47:09;;;;;;;4.68;2.38;;;4.00;97.50;;;;;;5089502;28;20035;-68
2023/03/08 00:49:35;;;;;;;5.55;2.83;;;3.90;97.70;;;;;;5092864;28;20479;-68
2023/03/08 00:52:01;;;;;;;8.75;3.05;;;3.90;97.50;;;;;;5094228;28;20070;-68
2023/03/08 00:54:28;;;;;;;4.18;2.22;;;3.90;97.50;;;;;;5094537;28;20024;-68
2023/03/08 00:56:54;;;;;;;4.97;2.33;;;3.90;97.50;;;;;;5094280;28;20073;-68
2023/03/08 00:59:19;;;;;;;5.50;2.45;;;3.90;97.50;;;;;;5094385;28;20111;-68
2023/03/08 01:01:45;;;;;;;9.65;3.33;;;3.90;97.60;;;;;;5094185;28;20071;-68
2023/03/08 01:04:11;;;;;;;4.75;2.88;;;3.90;97.60;;;;;;5092219;28;20039;-69
2023/03/08 01:06:38;;;;;;;5.18;2.72;;;3.90;97.60;;;;;;5093793;28;20039;-68
2023/03/08 01:09:04;;;;;;;7.32;2.80;;;3.90;97.60;;;;;;5084374;28;20468;-68
2023/03/08 01:11:30;;;;;;;7.28;3.60;;;3.90;97.70;;;;;;5092702;28;20028;-68
2023/03/08 01:13:55;;;;;;;6.22;2.83;;;3.90;97.70;;;;;;5094505;28;20020;-67
2023/03/08 01:16:27;;;;;;;8.32;3.03;;;3.80;97.70;;;;;;5093503;28;20050;-67
2023/03/08 01:18:54;;;;;;;6.57;3.45;;;3.80;97.70;;;;;;5094294;28;20020;-67
2023/03/08 01:21:20;;;;;;;8.38;3.28;;;3.80;97.70;;;;;;5089295;28;20423;-67
2023/03/08 01:23:47;;;;;;;7.03;3.50;;;3.80;97.80;;;;;;5080181;28;20024;-68
2023/03/08 01:26:15;;;;;;;5.43;2.97;;;3.80;98.00;;;;;;5093845;28;20115;-68
2023/03/08 01:28:41;;;;;;;7.82;3.03;;;3.80;97.80;;;;;;5078886;28;20039;-67
2023/03/08 01:31:10;;;;;;;5.03;3.17;;;3.80;97.80;;;;;;5091198;28;20132;-67
2023/03/08 01:33:37;;;;;;;8.57;4.03;;;3.80;97.80;;;;;;5092431;28;20051;-68
2023/03/08 01:36:07;;;;;;;5.90;3.42;;;3.70;97.80;;;;;;5093503;28;20031;-68
2023/03/08 01:38:33;;;;;;;5.82;3.42;;;3.70;97.90;;;;;;5091029;28;20464;-68
2023/03/08 01:41:00;;;;;;;7.07;3.65;;;3.70;97.90;;;;;;5093977;28;20028;-68
2023/03/08 01:43:27;;;;;;;6.47;3.47;;;3.70;97.90;;;;;;5091775;28;20081;-68
2023/03/08 01:46:22;;;;;;;6.07;3.40;;;3.70;98.00;;;;;;5093391;28;20028;-68
2023/03/08 01:49:01;;;;;;;6.43;4.22;;;3.70;98.00;;;;;;5093870;28;20020;-68
2023/03/08 01:51:33;;;;;;;9.63;4.18;;;3.60;98.00;;;;;;5093125;28;20024;-68
2023/03/08 01:54:01;;;;;;;8.27;4.10;;;3.60;98.00;;;;;;5087951;28;20024;-68
2023/03/08 01:56:27;;;;;;;6.60;3.78;;;3.60;98.10;;;;;;5092621;28;20032;-68
2023/03/08 01:58:54;;;;;;;7.95;3.83;;;3.60;98.10;;;;;;5092713;28;20147;-66
2023/03/08 02:01:20;;;;;;;5.95;4.07;;;3.60;98.10;;;;;;5092872;28;20077;-67
2023/03/08 02:03:46;;;;;;;8.02;4.13;;;3.60;98.10;;;;;;5093157;28;20032;-67
2023/03/08 02:06:14;;;;;;;6.70;4.15;;;3.60;98.10;;;;;;5071639;28;20044;-66
2023/03/08 02:08:41;;;;;;;8.00;4.47;;;3.60;98.20;;;;;;5075981;28;20077;-67
2023/03/08 02:11:08;;;;;;;10.35;5.32;;;3.60;98.20;;;;;;5087883;28;20077;-67
2023/03/08 02:13:34;;;;;;;6.15;4.20;;;3.50;98.40;;;;;;5086263;28;20032;-67
2023/03/08 02:16:03;;;;;;;7.10;4.75;;;3.50;98.20;;;;;;5092836;28;20198;-68
2023/03/08 02:18:28;;;;;;;6.88;5.13;;;3.50;98.30;;;;;;5091524;28;20028;-68
2023/03/08 02:20:54;;;;;;;9.20;4.22;;;3.50;98.20;;;;;;5092921;28;20028;-68
2023/03/08 02:23:23;;;;;;;7.55;4.72;;;3.50;98.30;;;;;;5092915;28;20263;-68
2023/03/08 02:25:50;;;;;;;9.57;5.07;;;3.40;98.40;;;;;;5092623;28;20476;-68
2023/03/08 02:28:17;;;;;;;7.20;4.78;;;3.40;98.40;;;;;;5081982;28;20039;-68
2023/03/08 02:30:42;;;;;;;8.60;5.30;;;3.50;98.50;;;;;;5072896;28;20032;-67
2023/03/08 02:33:08;;;;;;;9.32;4.90;;;3.50;98.50;;;;;;5074912;28;20047;-67
2023/03/08 02:35:35;;;;;;;10.02;5.60;;;3.50;98.60;;;;;;5092881;28;20024;-67
2023/03/08 02:38:00;;;;;;;8.57;5.43;;;3.40;98.60;;;;;;5092965;28;20036;-68
2023/03/08 02:40:26;;;;;;;9.77;5.68;;;3.40;98.60;;;;;;5092361;28;20020;-68
2023/03/08 02:42:51;;;;;;;10.10;5.50;;;3.40;98.60;;;;;;5092518;28;20501;-68
2023/03/08 02:45:17;;;;;;;9.20;6.05;;;3.40;98.60;;;;;;5082328;28;20089;-67
2023/03/08 02:47:43;;;;;;;12.73;6.45;;;3.40;98.60;;;;;;5072395;28;20158;-68
2023/03/08 02:50:09;;;;;;;10.60;5.57;;;3.40;98.60;;;;;;5073492;28;20029;-67
2023/03/08 02:52:34;;;;;;;12.88;6.32;;;3.40;98.60;;;;;;5092375;28;20039;-68
2023/03/08 02:55:00;;;;;;;11.18;6.28;;;3.40;98.60;;;;;;5092084;28;20032;-67
2023/03/08 02:57:26;;;;;;;9.93;6.22;;;3.30;98.60;;;;;;5092141;28;20040;-67
2023/03/08 02:59:51;;;;;;;12.68;6.63;;;3.30;98.60;;;;;;5090690;28;20062;-67
2023/03/08 03:02:17;;;;;;;9.70;6.07;;;3.30;98.70;;;;;;5089025;28;20123;-67
2023/03/08 03:04:42;;;;;;;10.07;6.20;;;3.30;98.70;;;;;;5091439;28;20032;-67
2023/03/08 03:07:08;;;;;;;9.73;6.25;;;3.30;98.90;;;;;;5092027;28;20047;-68
2023/03/08 03:09:34;;;;;;;9.80;6.53;;;3.30;98.70;;;;;;5091864;28;20108;-67
2023/03/08 03:12:00;;;;;;;11.68;6.82;;;3.30;98.70;;;;;;5092170;28;20032;-68
2023/03/08 03:14:28;;;;;;;8.73;5.90;;;3.30;98.80;;;;;;5092306;28;20038;-67
2023/03/08 03:16:54;;;;;;;10.15;6.07;;;3.30;98.80;;;;;;5091941;28;20056;-69
2023/03/08 03:19:20;;;;;;;15.07;6.95;;;3.30;98.80;;;;;;5087324;28;20115;-68
2023/03/08 03:21:45;;;;;;;9.82;6.22;;;3.30;98.80;;;;;;5092002;28;20040;-68
2023/03/08 03:24:12;;;;;;;11.48;6.10;;;3.30;98.90;;;;;;5091545;28;20031;-68
2023/03/08 03:26:39;;;;;;;11.43;6.40;;;3.30;98.90;;;;;;5092161;28;20047;-67
2023/03/08 03:29:05;;;;;;;12.02;6.32;;;3.30;98.90;;;;;;5090460;28;20024;-68
2023/03/08 03:31:30;;;;;;;11.00;6.13;;;3.30;98.90;;;;;;5092111;28;20042;-67
2023/03/08 03:33:56;;;;;;;9.90;6.53;;;3.30;98.90;;;;;;5091763;28;20028;-67
2023/03/08 03:36:22;;;;;;;10.18;6.82;;;3.30;99.00;;;;;;5080666;28;20028;-67
2023/03/08 03:38:48;;;;;;;11.98;6.53;;;3.40;99.00;;;;;;5071202;28;20422;-67
2023/03/08 03:41:17;;;;;;;9.95;6.35;;;3.40;99.00;;;;;;5075348;28;20047;-67
2023/03/08 03:43:43;;;;;;;9.57;7.10;;;3.40;99.00;;;;;;5091687;28;20502;-67
2023/03/08 03:46:13;;;;;;;10.73;6.30;;;3.30;98.90;;;;;;5091837;28;20032;-68
2023/03/08 03:48:38;;;;;;;8.48;5.90;;;3.40;99.00;;;;;;5084207;28;20020;-72
2023/03/08 03:51:07;;;;;;;10.10;6.70;;;3.40;99.00;;;;;;5091748;28;20030;-71
2023/03/08 03:53:33;;;;;;;11.10;6.88;;;3.40;99.10;;;;;;5075930;28;20352;-73
2023/03/08 03:56:12;;;;;;;10.77;6.70;;;3.40;99.10;;;;;;5069985;28;20492;-73
2023/03/08 03:58:38;;;;;;;14.20;7.72;;;3.50;99.10;;;;;;5084987;28;20127;-73
2023/03/08 04:01:11;;;;;;;11.30;7.38;;;3.50;99.10;;;;;;5090419;28;20477;-73
2023/03/08 04:03:37;;;;;;;12.00;7.85;;;3.50;99.10;;;;;;5090015;28;20078;-73
2023/03/08 04:06:27;;;;;;;10.32;5.90;;;3.50;99.10;;;;;;5090295;28;20035;-72
2023/03/08 04:09:01;;;;;;;13.55;7.28;;;3.50;99.10;;;;;;5087010;28;20029;-70
2023/03/08 04:11:30;;;;;;;10.40;7.55;;;3.60;99.10;;;;;;5071524;28;20032;-71
2023/03/08 04:13:56;;;;;;;9.70;5.93;;;3.60;99.10;;;;;;5086750;28;20039;-70
2023/03/08 04:16:28;;;;;;;14.75;6.60;;;3.50;99.00;;;;;;5089642;28;20032;-69
2023/03/08 04:18:56;;;;;;;11.30;6.65;;;3.60;99.10;;;;;;5095194;28;20028;-70
2023/03/08 04:21:22;;;;;;;12.43;6.78;;;3.60;99.10;;;;;;5094614;28;20118;-69
2023/03/08 04:23:48;;;;;;;9.80;6.45;;;3.70;99.10;;;;;;5095254;28;20138;-69
2023/03/08 04:26:14;;;;;;;12.95;6.80;;;3.70;98.90;;;;;;5086071;28;20066;-68
2023/03/08 04:28:40;;;;;;;11.07;7.05;;;3.60;98.90;;;;;;5074538;28;20047;-69
2023/03/08 04:31:16;;;;;;;9.52;6.57;;;3.60;98.90;;;;;;5081451;28;20031;-69
2023/03/08 04:33:42;;;;;;;9.50;6.72;;;3.60;98.80;;;;;;5095143;28;20016;-69
2023/03/08 04:36:08;;;;;;;9.63;6.68;;;3.60;98.80;;;;;;5094332;28;20463;-69
2023/03/08 04:38:35;;;;;;;10.30;6.32;;;3.60;98.80;;;;;;5093926;28;20078;-69
2023/03/08 04:41:01;;;;;;;11.98;6.50;;;3.60;99.00;;;;;;5093050;28;20035;-69
2023/03/08 04:43:27;;;;;;;10.80;6.75;;;3.70;98.80;;;;;;5077309;28;20387;-68
2023/03/08 04:45:53;;;;;;;9.82;6.70;;;3.60;98.80;;;;;;5094483;28;20032;-69
2023/03/08 04:48:19;;;;;;;10.32;6.60;;;3.70;98.80;;;;;;5092779;28;20020;-70
2023/03/08 04:50:50;;;;;;;9.75;6.78;;;3.70;98.80;;;;;;5094389;28;20031;-71
2023/03/08 04:53:16;;;;;;;9.80;6.20;;;3.70;98.70;;;;;;5093623;28;20047;-70
2023/03/08 04:55:42;;;;;;;9.50;6.32;;;3.70;98.70;;;;;;5093568;28;20475;-71
2023/03/08 04:58:07;;;;;;;9.48;6.47;;;3.70;98.60;;;;;;5092260;28;20561;-71
2023/03/08 05:00:33;;;;;;;11.88;6.50;;;3.60;98.60;;;;;;5093944;28;20024;-71
2023/03/08 05:02:58;;;;;;;8.82;6.55;;;3.60;98.60;;;;;;5094471;28;20070;-71
2023/03/08 05:05:24;;;;;;;8.25;5.80;;;3.60;98.50;;;;;;5093742;28;20501;-70
2023/03/08 05:07:49;;;;;;;9.93;6.05;;;3.60;98.50;;;;;;5092888;28;20028;-70
2023/03/08 05:10:15;;;;;;;9.52;6.82;;;3.60;98.50;;;;;;5093695;28;20122;-70
2023/03/08 05:12:40;;;;;;;11.63;7.35;;;3.60;98.50;;;;;;5092890;28;20140;-69
2023/03/08 05:15:06;;;;;;;11.52;6.50;;;3.60;98.40;;;;;;5090568;28;20020;-70
2023/03/08 05:17:32;;;;;;;9.90;6.20;;;3.50;98.40;;;;;;5077453;28;20024;-70
2023/03/08 05:19:58;;;;;;;8.35;5.95;;;3.50;98.40;;;;;;5088377;28;20035;-71
2023/03/08 05:22:23;;;;;;;9.43;6.50;;;3.50;98.40;;;;;;5094468;28;20020;-71
2023/03/08 05:24:49;;;;;;;8.32;5.75;;;3.50;98.50;;;;;;5092972;28;20038;-71
2023/03/08 05:27:15;;;;;;;9.45;6.25;;;3.50;98.50;;;;;;5092387;28;20055;-71
2023/03/08 05:29:41;;;;;;;10.10;5.88;;;3.40;98.50;;;;;;5092201;28;20035;-71
2023/03/08 05:32:10;;;;;;;10.02;6.32;;;3.40;98.50;;;;;;5093989;28;20024;-71
2023/03/08 05:34:35;;;;;;;8.38;6.13;;;3.40;98.50;;;;;;5086968;28;20035;-70
2023/03/08 05:37:01;;;;;;;10.75;6.78;;;3.40;98.50;;;;;;5073697;28;20024;-70
2023/03/08 05:39:28;;;;;;;8.98;6.07;;;3.40;98.50;;;;;;5085889;28;20040;-71
2023/03/08 05:41:55;;;;;;;8.93;6.05;;;3.40;98.50;;;;;;5091769;28;20032;-71
2023/03/08 05:44:21;;;;;;;9.00;6.43;;;3.40;98.50;;;;;;5093784;28;20028;-71
2023/03/08 05:46:49;;;;;;;10.88;6.82;;;3.40;98.50;;;;;;5092684;28;20089;-71
2023/03/08 05:49:14;;;;;;;10.65;6.68;;;3.30;98.50;;;;;;5094022;28;20024;-71
2023/03/08 05:51:40;;;;;;;8.35;6.00;;;3.40;98.50;;;;;;5086103;28;20131;-72
2023/03/08 05:54:06;;;;;;;10.57;6.70;;;3.30;98.50;;;;;;5093221;28;20026;-71
2023/03/08 05:56:31;;;;;;;9.60;6.72;;;3.30;98.60;;;;;;5092125;28;20029;-70
2023/03/08 05:58:57;;;;;;;11.10;6.93;;;3.30;98.60;;;;;;5093488;28;20055;-70
2023/03/08 06:01:25;;;;;;;9.05;6.95;;;3.30;98.60;;;;;;5090807;28;20032;-70
2023/03/08 06:03:56;;;;;;;8.20;6.53;;;3.20;98.60;;;;;;5093222;28;20107;-71
2023/03/08 06:06:24;;;;;;;9.32;6.13;;;3.20;98.60;;;;;;5092395;28;20140;-70
2023/03/08 06:08:49;;;;;;;9.90;6.55;;;3.20;98.70;;;;;;5081606;28;20044;-70
2023/03/08 06:11:16;;;;;;;9.60;6.60;;;3.20;98.70;;;;;;5076698;28;20506;-70
2023/03/08 06:13:42;;;;;;;9.65;6.43;;;3.20;98.70;;;;;;5093337;28;20031;-71
2023/03/08 06:16:08;;;;;;;10.32;6.80;;;3.20;98.80;;;;;;5092181;28;20028;-70
2023/03/08 06:18:36;;;;;;;9.10;7.15;;;3.20;98.80;;;;;;5091940;28;20024;-70
2023/03/08 06:21:03;;;;;;;9.00;6.60;;;3.20;98.80;;;;;;5092432;28;20035;-70
2023/03/08 06:23:30;;;;;;;11.20;6.35;;;3.20;98.80;;;;;;5090402;28;20024;-69
2023/03/08 06:25:56;;;;;;;10.45;7.03;;;3.20;98.80;;;;;;5078433;28;20032;-69
2023/03/08 06:28:22;;;;;;;10.40;6.93;;;3.20;98.80;;;;;;5092807;28;20080;-69
2023/03/08 06:30:48;;;;;;;10.10;6.20;;;3.20;98.80;;;;;;5092212;28;20126;-69
2023/03/08 06:33:19;;;;;;;13.60;7.57;;;3.20;98.90;;;;;;5082640;28;20024;-69
2023/03/08 06:36:17;;;;;;;9.02;6.95;;;3.30;98.90;;;;;;5073433;28;20124;-70
2023/03/08 06:38:43;;;;;;;9.82;6.38;;;3.20;98.90;;;;;;5089380;28;20032;-70
2023/03/08 06:41:10;;;;;;;12.75;7.38;;;3.30;98.80;;;;;;5073838;28;20549;-70
2023/03/08 06:43:36;;;;;;;12.23;6.78;;;3.30;98.80;;;;;;5072234;28;20198;-70
2023/03/08 06:46:13;;;;;;;11.23;6.47;;;3.30;98.80;;;;;;5088215;28;20519;-70
2023/03/08 06:48:40;;;;;;;12.80;7.10;;;3.40;98.80;;;;;;5092194;28;20020;-70
2023/03/08 06:51:05;;;;;;;10.38;7.00;;;3.40;98.80;;;;;;5085120;28;20036;-70
2023/03/08 06:53:32;;;;;;;11.23;7.65;;;3.40;98.80;;;;;;5078449;28;20423;-70
2023/03/08 06:55:57;;;;;;;9.18;6.35;;;3.40;98.80;;;;;;5092427;28;20593;-70
2023/03/08 06:58:23;;;;;;;10.73;7.18;;;3.40;98.80;;;;;;5091076;28;20293;-71
2023/03/08 07:00:49;;;;;;;11.73;6.82;;;3.40;98.80;;;;;;5092007;28;20111;-69
2023/03/08 07:03:14;;;;;;;9.43;6.82;;;3.40;98.80;;;;;;5091082;28;20540;-69
2023/03/08 07:05:41;;;;;;;12.40;7.65;;;3.50;98.80;;;;;;5090283;28;20542;-70
2023/03/08 07:08:07;;;;;;;13.75;7.97;;;3.50;98.80;;;;;;5085198;28;20024;-69
2023/03/08 07:10:33;;;;;;;8.02;6.03;;;3.60;99.00;;;;;;5087837;28;20032;-68
2023/03/08 07:12:59;;;;;;;12.55;7.18;;;3.60;98.80;;;;;;5092167;28;20023;-69
2023/03/08 07:15:24;;;;;;;10.68;6.18;;;3.70;98.80;;;;;;5090940;28;20024;-68
2023/03/08 07:17:54;;;;;;;12.80;6.90;;;3.80;98.80;;;;;;5091283;28;20032;-69
2023/03/08 07:20:22;;;;;;;10.23;6.43;;;3.90;98.70;;;;;;5092187;28;20029;-68
2023/03/08 07:22:48;;;;;;;8.88;6.70;;;3.90;98.70;;;;;;5086907;28;20028;-68
2023/03/08 07:25:16;;;;;;;7.65;5.60;;;3.90;98.60;;;;;;5077186;28;20082;-69
2023/03/08 07:27:42;;;;;;;14.63;6.97;;;4.00;98.50;;;;;;5087511;28;20067;-68
2023/03/08 07:30:09;;;;;;;8.55;6.05;;;4.00;98.40;;;;;;5091324;28;20035;-68
2023/03/08 07:32:35;;;;;;;8.73;6.25;;;4.10;98.40;;;;;;5090794;28;20020;-68
2023/03/08 07:35:01;;;;;;;9.15;6.78;;;4.10;98.30;;;;;;5092016;28;20032;-68
2023/03/08 07:37:27;;;;;;;11.15;7.47;;;4.10;98.30;;;;;;5089289;28;20027;-68
2023/03/08 07:39:52;;;;;;;13.15;7.20;;;4.20;98.30;;;;;;5089635;28;20418;-68
2023/03/08 07:42:18;;;;;;;8.70;6.88;;;4.20;98.20;;;;;;5083786;28;20024;-68
2023/03/08 07:44:44;;;;;;;11.60;6.82;;;4.20;98.20;;;;;;5080171;28;20122;-68
2023/03/08 07:47:10;;;;;;;9.35;6.50;;;4.20;98.20;;;;;;5091173;28;20031;-68
2023/03/08 07:49:36;;;;;;;9.20;6.50;;;4.20;98.20;;;;;;5088930;28;20028;-69
2023/03/08 07:52:01;;;;;;;10.70;6.82;;;4.30;98.20;;;;;;5093446;28;20088;-68
2023/03/08 07:54:27;;;;;;;11.90;7.40;;;4.30;98.20;;;;;;5094856;28;20020;-68
2023/03/08 07:56:54;;;;;;;10.35;6.60;;;4.30;98.30;;;;;;5095463;28;20398;-66
2023/03/08 07:59:20;;;;;;;12.05;7.03;;;4.40;98.20;;;;;;5086492;28;20025;-66
2023/03/08 08:01:46;;;;;;;9.20;6.82;;;4.40;98.20;;;;;;5089456;28;20388;-66
2023/03/08 08:04:12;;;;;;;11.73;7.50;;;4.50;98.40;;;;;;5083782;28;20018;-66
2023/03/08 08:06:41;;;;;;;11.50;7.93;;;4.50;98.10;;;;;;5094542;28;20498;-66
2023/03/08 08:09:07;;;;;;;13.23;8.90;;;4.50;98.10;;;;;;5094420;28;20099;-67
2023/03/08 08:11:33;;;;;;;12.18;8.80;;;4.50;98.10;;;;;;5095430;28;20024;-68
2023/03/08 08:14:00;;;;;;;11.38;8.90;;;4.60;98.10;;;;;;5094163;28;20501;-67
2023/03/08 08:16:25;;;;;;;12.30;8.27;;;4.70;98.10;;;;;;5094152;28;20032;-67
2023/03/08 08:18:53;;;;;;;12.13;7.93;;;4.60;98.10;;;;;;5093229;28;20024;-67
2023/03/08 08:21:19;;;;;;;13.52;8.60;;;4.60;98.10;;;;;;5095419;28;20107;-67
2023/03/08 08:23:46;;;;;;;12.05;7.57;;;4.70;98.10;;;;;;5093852;28;20050;-68
2023/03/08 08:26:20;;;;;;;13.73;8.43;;;4.70;98.10;;;;;;5092683;28;20036;-68
2023/03/08 08:28:48;;;;;;;11.90;7.95;;;4.80;98.10;;;;;;5087373;28;20031;-68
2023/03/08 08:31:17;;;;;;;11.07;7.32;;;4.80;98.00;;;;;;5092124;28;20031;-68
2023/03/08 08:33:43;;;;;;;11.32;7.88;;;4.90;98.00;;;;;;5088498;28;20110;-68
2023/03/08 08:36:13;;;;;;;9.75;7.32;;;5.00;98.00;;;;;;5095107;28;20107;-68
2023/03/08 08:38:39;;;;;;;10.27;7.50;;;5.10;97.90;;;;;;5093839;28;20119;-68
2023/03/08 08:41:06;;;;;;;10.32;7.05;;;5.20;97.90;;;;;;5081487;28;20063;-68
2023/03/08 08:43:34;;;;;;;10.00;7.57;;;5.20;97.90;;;;;;5090543;28;20119;-68
2023/03/08 08:46:01;;;;;;;10.57;8.13;;;5.20;97.80;;;;;;5090599;28;20048;-68
2023/03/08 08:48:27;;;;;;;10.77;7.45;;;5.30;97.80;;;;;;5089977;28;20109;-67
2023/03/08 08:50:53;;;;;;;15.15;7.18;;;5.40;97.70;;;;;;5094891;28;20023;-68
2023/03/08 08:53:20;;;;;;;8.90;6.30;;;5.40;97.60;;;;;;5093018;28;20028;-68
2023/03/08 08:55:45;;;;;;;10.88;7.03;;;5.50;97.40;;;;;;5094015;28;20119;-67
2023/03/08 08:58:11;;;;;;;9.50;6.20;;;5.50;97.20;;;;;;5087239;28;20135;-68
2023/03/08 09:00:37;;;;;;;6.55;4.75;;;5.50;97.10;;;;;;5085640;28;20020;-67
2023/03/08 09:03:04;;;;;;;8.05;5.32;;;5.60;96.90;;;;;;5092397;28;20035;-67
2023/03/08 09:05:31;;;;;;;8.43;5.70;;;5.60;96.80;;;;;;5092750;28;20051;-67
2023/03/08 09:07:59;;;;;;;8.02;5.38;;;5.60;96.60;;;;;;5090310;28;20036;-66
2023/03/08 09:10:26;;;;;;;8.85;5.68;;;5.70;96.50;;;;;;5092359;28;20024;-66
2023/03/08 09:12:52;;;;;;;8.57;5.10;;;5.70;96.40;;;;;;5092584;28;20032;-67
2023/03/08 09:15:17;;;;;;;7.32;5.50;;;5.70;96.40;;;;;;5084723;28;20367;-67
2023/03/08 09:17:43;;;;;;;6.15;4.75;;;5.80;96.30;;;;;;5090349;28;20032;-67
2023/03/08 09:20:10;;;;;;;7.32;5.25;;;5.90;96.20;;;;;;5092772;28;20028;-68
2023/03/08 09:22:38;;;;;;;7.25;4.88;;;5.90;96.00;;;;;;5076886;28;20119;-66
2023/03/08 09:25:06;;;;;;;8.77;4.93;;;6.00;96.00;;;;;;5090676;28;20029;-67
2023/03/08 09:27:31;;;;;;;6.70;4.88;;;6.00;95.90;;;;;;5090527;28;20032;-66
2023/03/08 09:29:57;;;;;;;7.93;4.47;;;6.00;95.80;;;;;;5092589;28;20027;-68
2023/03/08 09:32:23;;;;;;;9.07;4.72;;;6.10;95.70;;;;;;5093487;28;20047;-68
2023/03/08 09:34:52;;;;;;;7.38;4.90;;;6.10;95.60;;;;;;5075430;28;20021;-67
2023/03/08 09:37:19;;;;;;;5.82;4.35;;;6.20;95.60;;;;;;5091497;28;20378;-67
2023/03/08 09:39:45;;;;;;;7.28;4.43;;;6.20;95.50;;;;;;5088760;28;20028;-68
2023/03/08 09:42:26;;;;;;;8.05;4.57;;;6.30;95.40;;;;;;5093579;28;20360;-67
2023/03/08 09:45:05;;;;;;;5.57;4.47;;;6.40;95.40;;;;;;5093430;28;20566;-67
2023/03/08 09:47:41;;;;;;;7.50;4.57;;;6.40;95.30;;;;;;5092713;28;20071;-68
2023/03/08 09:50:14;;;;;;;6.32;4.55;;;6.50;95.30;;;;;;5074574;28;20047;-68
2023/03/08 09:53:37;;;;;;;7.18;4.72;;;6.60;95.20;;;;;;5086732;28;20099;-67
2023/03/08 09:56:11;;;;;;;6.25;4.28;;;6.70;95.20;;;;;;5010347;28;20022;-67
2023/03/08 09:58:42;;;;;;;;;;;6.80;95.10;;;;;;5085274;28;20036;-67
2023/03/08 10:01:47;;;;;;;8.15;4.45;;;6.90;95.50;;;;;;5091912;28;20394;-65
2023/03/08 10:04:28;;;;;;;8.63;4.88;;;7.00;95.20;;;;;;5073974;28;20089;-66
2023/03/08 10:07:12;;;;;;;6.03;4.53;;;7.10;95.10;;;;;;5091515;28;20051;-67
2023/03/08 10:09:43;;;;;;;5.70;3.67;;;7.20;95.00;;;;;;5088394;28;20475;-66
2023/03/08 10:12:28;;;;;;;5.88;4.10;;;7.30;94.90;;;;;;5092645;28;20146;-67
2023/03/08 10:15:02;;;;;;;5.45;4.28;;;7.50;94.70;;;;;;5090049;28;20028;-66
2023/03/08 10:17:49;;;;;;;6.75;4.32;;;7.50;94.50;;;;;;5081843;28;20531;-66
2023/03/08 10:20:28;;;;;;;6.50;4.82;;;7.50;94.40;;;;;;5086891;28;20035;-66
2023/03/08 10:23:15;;;;;;;6.03;4.00;;;7.60;94.20;;;;;;5084547;28;20487;-66
2023/03/08 10:25:42;;;;;;;6.15;4.28;;;7.70;94.10;;;;;;5092650;28;20047;-67
2023/03/08 10:28:22;;;;;;;6.50;3.88;;;7.70;94.00;;;;;;5089027;28;20028;-66
2023/03/08 10:30:59;;;;;;;5.80;3.90;;;7.80;93.60;;;;;;5089032;28;20115;-66
2023/03/08 10:33:31;;;;;;;6.45;3.85;;;7.80;93.50;;;;;;5089792;28;20031;-67
2023/03/08 10:36:18;;;;;;;9.80;4.03;;;7.90;93.30;;;;;;5089528;28;20570;-69
2023/03/08 10:38:58;;;;;;;4.88;3.78;;;8.00;93.20;;;;;;5089090;28;20448;-68
2023/03/08 10:41:25;;;;;;;5.72;3.83;;;8.00;93.00;;;;;;5089983;28;20024;-65
2023/03/08 10:43:53;;;;;;;6.78;3.75;;;8.10;92.90;;;;;;5092036;28;20024;-65
2023/03/08 10:46:30;;;;;;;5.90;3.92;;;8.10;92.70;;;;;;5090629;28;20487;-66
2023/03/08 10:49:14;;;;;;;4.47;3.25;;;8.10;92.60;;;;;;5080893;28;20111;-65
2023/03/08 10:51:50;;;;;;;4.93;3.63;;;8.20;92.70;;;;;;5086399;28;20105;-68
2023/03/08 10:54:15;;;;;;;4.88;3.60;;;8.10;92.40;;;;;;5084698;28;20024;-68
2023/03/08 10:56:55;;;;;;;5.25;3.65;;;8.20;92.30;;;;;;5090133;28;20024;-67
2023/03/08 10:59:30;;;;;;;5.85;3.47;;;8.30;92.10;;;;;;5090527;28;20016;-67
2023/03/08 11:01:59;;;;;;;7.60;3.75;;;8.30;92.00;;;;;;5091091;28;20047;-67
2023/03/08 11:04:27;;;;;;;6.18;4.40;;;8.30;92.00;;;;;;5090289;28;20048;-68
2023/03/08 11:06:53;;;;;;;6.32;4.07;;;8.30;91.90;;;;;;5083285;28;20039;-68
2023/03/08 11:09:30;;;;;;;5.53;3.80;;;8.30;91.80;;;;;;5091191;28;20023;-67
2023/03/08 11:11:57;;;;;;;5.18;3.65;;;8.40;91.70;;;;;;5090414;28;20028;-66
2023/03/08 11:14:24;;;;;;;6.13;3.67;;;8.40;91.70;;;;;;5077801;28;20020;-67
2023/03/08 11:17:11;;;;;;;5.53;3.20;;;8.40;91.70;;;;;;5090083;28;20024;-67
2023/03/08 11:19:59;;;;;;;5.50;3.33;;;8.40;91.60;;;;;;5089421;28;20497;-70
2023/03/08 11:22:57;;;;;;;5.80;3.03;;;8.50;91.60;;;;;;5071805;28;20031;-70
2023/03/08 11:25:35;;;;;;;4.40;3.00;;;8.60;91.30;;;;;;5086377;28;20035;-69
2023/03/08 11:28:15;;;;;;;5.47;3.05;;;8.70;91.00;;;;;;5090460;28;20032;-70
2023/03/08 11:31:02;;;;;;;4.78;2.67;;;8.70;90.80;;;;;;5090023;28;20375;-69
2023/03/08 11:33:33;;;;;;;3.72;2.55;;;8.70;90.70;;;;;;5083145;28;20562;-69
2023/03/08 11:36:29;;;;;;;5.57;3.00;;;8.80;90.80;;;;;;5091046;28;20062;-70
2023/03/08 11:39:24;;;;;;;3.78;2.88;;;8.80;90.60;;;;;;5089607;28;20119;-69
2023/03/08 11:42:01;;;;;;;5.20;3.30;;;8.90;90.50;;;;;;5085594;28;20032;-70
2023/03/08 11:44:40;;;;;;;6.15;3.35;;;8.90;90.20;;;;;;5089678;28;20036;-70
2023/03/08 11:47:42;;;;;;;4.45;2.92;;;8.90;90.20;;;;;;5089785;28;20036;-70
2023/03/08 11:50:40;;;;;;;6.10;2.75;;;8.90;90.10;;;;;;5089185;28;20024;-69
2023/03/08 11:53:19;;;;;;;7.50;3.17;;;9.00;90.20;;;;;;5074731;28;20060;-70
2023/03/08 11:56:17;;;;;;;5.00;3.33;;;9.00;90.00;;;;;;5090195;28;20024;-72
2023/03/08 11:58:56;;;;;;;4.50;3.30;;;9.00;90.00;;;;;;5075352;28;20044;-70
2023/03/08 12:01:27;;;;;;;4.63;3.15;;;9.00;89.80;;;;;;5077558;28;20089;-70
2023/03/08 12:03:57;;;;;;;5.95;3.20;;;9.00;89.70;;;;;;5072197;28;20032;-70
2023/03/08 12:06:29;;;;;;;3.72;2.88;;;9.00;89.50;;;;;;5085684;28;20144;-69
2023/03/08 12:09:04;;;;;;;4.15;3.15;;;9.00;89.20;;;;;;5073940;28;20032;-68
2023/03/08 12:11:40;;;;;;;4.20;3.20;;;9.00;88.90;;;;;;5080674;28;20286;-69
2023/03/08 12:14:16;;;;;;;4.35;2.85;;;9.00;88.60;;;;;;5089490;28;20517;-68
2023/03/08 12:16:49;;;;;;;6.10;3.33;;;9.10;88.50;;;;;;5091331;28;20103;-73
2023/03/08 12:19:34;;;;;;;4.90;3.35;;;9.10;88.00;;;;;;5084318;28;20020;-70
2023/03/08 12:22:32;;;;;;;4.80;3.20;;;9.00;88.10;;;;;;5070005;28;20032;-71
2023/03/08 12:25:32;;;;;;;5.55;3.17;;;9.00;88.20;;;;;;5087223;28;20051;-70
2023/03/08 12:28:19;;;;;;;3.83;2.58;;;9.00;88.20;;;;;;5086473;28;20192;-70
2023/03/08 12:31:38;;;;;;;5.00;3.28;;;9.10;88.10;;;;;;5090521;28;20484;-73
2023/03/08 12:34:37;;;;;;;5.20;3.55;;;9.10;88.00;;;;;;5067803;28;20025;-71
2023/03/08 12:37:28;;;;;;;4.28;3.00;;;9.00;87.90;;;;;;5064366;28;20366;-71
2023/03/08 12:40:29;;;;;;;6.45;3.50;;;9.00;87.70;;;;;;5083746;28;20036;-73
2023/03/08 12:43:29;;;;;;;5.43;3.13;;;9.00;87.70;;;;;;5075647;28;20024;-73
2023/03/08 12:45:59;;;;;;;7.72;3.40;;;9.00;87.40;;;;;;5066407;28;20044;-74
2023/03/08 12:48:35;;;;;;;4.45;3.25;;;8.90;87.00;;;;;;5081546;28;20127;-73
2023/03/08 12:51:11;;;;;;;3.90;2.88;;;8.90;86.80;;;;;;5081889;28;20028;-75
2023/03/08 12:53:45;;;;;;;4.85;3.25;;;8.90;86.60;;;;;;5081250;28;20035;-70
2023/03/08 12:56:24;;;;;;;5.82;3.40;;;8.90;86.60;;;;;;5093201;28;20031;-73
2023/03/08 12:59:02;;;;;;;5.30;3.45;;;8.90;86.50;;;;;;5094026;28;20044;-71
2023/03/08 13:01:38;;;;;;;4.30;3.20;;;8.90;86.30;;;;;;5094096;28;20043;-73
2023/03/08 13:04:27;;;;;;;8.47;3.50;;;8.90;86.20;;;;;;5093359;28;20107;-75
2023/03/08 13:07:18;;;;;;;4.53;3.00;;;8.80;86.00;;;;;;5093115;28;20374;-73
2023/03/08 13:10:18;;;;;;;5.93;3.13;;;8.70;86.00;;;;;;5093690;28;20024;-67
2023/03/08 13:13:05;;;;;;;5.68;3.85;;;8.70;85.90;;;;;;5086986;28;20111;-68